createdAt,value
2019-05-18T00:01:44.164Z,48.57
2019-05-18T00:04:13.239Z,47.43
2019-05-18T00:06:40.160Z,47.33
2019-05-18T00:09:06.302Z,44.33
2019-05-18T00:11:32.671Z,45.53
2019-05-18T00:13:58.751Z,43.03
2019-05-18T00:16:29.909Z,53.17
2019-05-18T00:18:55.916Z,51.17
2019-05-18T00:21:21.963Z,50.23
2019-05-18T00:23:47.971Z,49.17
2019-05-18T00:26:13.991Z,52.73
2019-05-18T00:28:41.821Z,44.73
2019-05-18T00:31:07.909Z,52.97
2019-05-18T00:33:33.958Z,53.10
2019-05-18T00:36:00.065Z,51.87
2019-05-18T00:38:26.071Z,52.10
2019-05-18T00:40:52.785Z,49.93
2019-05-18T00:43:19.051Z,52.63
2019-05-18T00:45:45.078Z,55.87
2019-05-18T00:48:11.220Z,54.43
2019-05-18T00:50:37.367Z,46.60
2019-05-18T00:53:03.398Z,48.63
2019-05-18T00:55:29.421Z,51.37
2019-05-18T00:57:55.456Z,47.03
2019-05-18T01:00:21.472Z,46.43
2019-05-18T01:02:47.496Z,54.20
2019-05-18T01:05:13.722Z,44.63
2019-05-18T01:07:39.735Z,49.77
2019-05-18T01:10:05.889Z,50.97
2019-05-18T01:12:32.238Z,49.40
2019-05-18T01:14:58.270Z,54.63
2019-05-18T01:17:25.866Z,48.93
2019-05-18T01:19:52.282Z,58.93
2019-05-18T01:22:18.346Z,53.00
2019-05-18T01:24:44.364Z,44.60
2019-05-18T01:27:10.467Z,48.80
2019-05-18T01:29:36.492Z,51.90
2019-05-18T01:32:02.849Z,48.47
2019-05-18T01:34:29.775Z,48.53
2019-05-18T01:36:55.797Z,47.20
2019-05-18T01:39:21.887Z,51.80
2019-05-18T01:41:48.953Z,41.63
2019-05-18T01:44:14.990Z,49.70
2019-05-18T01:46:41.011Z,61.83
2019-05-18T01:49:07.455Z,67.43
2019-05-18T01:51:33.460Z,60.67
2019-05-18T01:53:59.471Z,55.43
2019-05-18T01:56:25.628Z,57.30
2019-05-18T01:58:51.650Z,50.67
2019-05-18T02:01:17.660Z,54.77
2019-05-18T02:03:43.896Z,50.97
2019-05-18T02:06:13.421Z,59.57
2019-05-18T02:08:39.568Z,51.00
2019-05-18T02:11:05.619Z,55.33
2019-05-18T02:13:31.635Z,53.10
2019-05-18T02:15:57.647Z,52.33
2019-05-18T02:18:29.059Z,51.77
2019-05-18T02:20:51.619Z,51.73
2019-05-18T02:23:17.643Z,49.40
2019-05-18T02:25:43.684Z,46.27
2019-05-18T02:28:09.715Z,57.03
2019-05-18T02:30:35.768Z,53.47
2019-05-18T02:33:01.869Z,50.60
2019-05-18T02:35:27.975Z,38.50
2019-05-18T02:37:55.966Z,46.53
2019-05-18T02:40:22.177Z,43.13
2019-05-18T02:42:48.528Z,48.47
2019-05-18T02:45:33.642Z,45.97
2019-05-18T02:47:59.808Z,40.80
2019-05-18T02:50:25.819Z,44.07
2019-05-18T02:52:52.733Z,39.57
2019-05-18T02:55:18.749Z,41.63
2019-05-18T02:57:45.052Z,46.80
2019-05-18T03:00:11.215Z,44.57
2019-05-18T03:02:37.243Z,51.57
2019-05-18T03:05:06.267Z,44.93
2019-05-18T03:07:32.340Z,50.23
2019-05-18T03:09:58.339Z,52.53
2019-05-18T03:12:24.352Z,48.23
2019-05-18T03:14:50.464Z,57.77
2019-05-18T03:17:16.476Z,48.87
2019-05-18T03:19:42.764Z,48.93
2019-05-18T03:22:08.795Z,47.30
2019-05-18T03:24:34.809Z,44.10
2019-05-18T03:27:00.824Z,47.70
2019-05-18T03:29:26.844Z,55.93
2019-05-18T03:31:52.912Z,47.50
2019-05-18T03:34:19.401Z,52.17
2019-05-18T03:36:45.526Z,49.07
2019-05-18T03:39:11.541Z,42.93
2019-05-18T03:41:37.547Z,55.57
2019-05-18T03:44:03.836Z,40.83
2019-05-18T03:46:30.139Z,49.40
2019-05-18T03:48:56.157Z,53.63
2019-05-18T03:51:22.264Z,52.70
2019-05-18T03:53:48.282Z,46.90
2019-05-18T03:56:14.295Z,44.00
2019-05-18T03:58:40.341Z,49.40
2019-05-18T04:01:06.337Z,49.87
2019-05-18T04:03:32.609Z,42.23
2019-05-18T04:05:58.647Z,46.83
2019-05-18T04:08:24.659Z,56.67
2019-05-18T04:10:50.664Z,41.67
2019-05-18T04:13:16.800Z,49.23
2019-05-18T04:15:42.825Z,51.00
2019-05-18T04:18:08.824Z,43.03
2019-05-18T04:20:34.865Z,56.93
2019-05-18T04:23:00.872Z,51.57
2019-05-18T04:25:26.885Z,49.50
2019-05-18T04:27:53.021Z,48.87
2019-05-18T04:30:19.032Z,49.93
2019-05-18T04:32:45.084Z,46.90
2019-05-18T04:35:11.471Z,39.97
2019-05-18T04:37:37.550Z,44.73
2019-05-18T04:40:04.664Z,42.30
2019-05-18T04:42:31.271Z,43.83
2019-05-18T04:44:57.588Z,48.93
2019-05-18T04:47:23.588Z,42.03
2019-05-18T04:50:04.319Z,44.87
2019-05-18T04:52:17.528Z,51.00
2019-05-18T04:54:43.539Z,49.73
2019-05-18T04:57:09.951Z,42.90
2019-05-18T04:59:36.259Z,48.23
2019-05-18T05:02:02.307Z,49.27
2019-05-18T05:04:28.341Z,47.47
2019-05-18T05:06:54.347Z,40.90
2019-05-18T05:09:20.356Z,41.57
2019-05-18T05:11:46.462Z,46.37
2019-05-18T05:14:12.475Z,48.97
2019-05-18T05:16:38.494Z,39.20
2019-05-18T05:19:04.714Z,43.03
2019-05-18T05:21:30.776Z,38.80
2019-05-18T05:23:56.831Z,41.57
2019-05-18T05:26:23.201Z,43.43
2019-05-18T05:28:49.285Z,46.30
2019-05-18T05:31:15.295Z,36.83
2019-05-18T05:33:41.739Z,37.43
2019-05-18T05:36:08.214Z,35.17
2019-05-18T05:38:34.255Z,34.90
2019-05-18T05:41:00.395Z,32.57
2019-05-18T05:43:26.411Z,41.53
2019-05-18T05:45:52.428Z,36.47
2019-05-18T05:48:18.473Z,35.83
2019-05-18T05:50:44.499Z,38.70
2019-05-18T05:53:10.576Z,39.33
2019-05-18T05:55:36.650Z,32.43
2019-05-18T05:58:02.753Z,33.63
2019-05-18T06:00:28.769Z,31.93
2019-05-18T06:02:55.164Z,27.97
2019-05-18T06:05:21.295Z,32.90
2019-05-18T06:07:47.379Z,36.77
2019-05-18T06:10:13.416Z,36.70
2019-05-18T06:12:39.444Z,37.17
2019-05-18T06:15:06.659Z,36.30
2019-05-18T06:17:32.703Z,32.47
2019-05-18T06:19:58.711Z,29.23
2019-05-18T06:22:24.733Z,36.00
2019-05-18T06:24:50.758Z,34.90
2019-05-18T06:27:16.791Z,38.63
2019-05-18T06:29:42.812Z,37.53
2019-05-18T06:32:08.913Z,38.90
2019-05-18T06:34:34.976Z,40.37
2019-05-18T06:37:01.518Z,31.90
2019-05-18T06:39:27.694Z,32.87
2019-05-18T06:41:54.077Z,37.20
2019-05-18T06:44:20.086Z,31.83
2019-05-18T06:46:46.199Z,36.50
2019-05-18T06:49:12.244Z,30.27
2019-05-18T06:51:38.347Z,30.97
2019-05-18T06:54:05.271Z,28.67
2019-05-18T06:56:35.276Z,31.57
2019-05-18T06:59:04.725Z,28.97
2019-05-18T07:01:30.945Z,29.67
2019-05-18T07:03:56.955Z,36.90
2019-05-18T07:06:22.991Z,35.37
2019-05-18T07:08:49.335Z,26.87
2019-05-18T07:11:15.720Z,29.43
2019-05-18T07:13:41.803Z,35.00
2019-05-18T07:16:07.831Z,27.70
2019-05-18T07:18:34.144Z,32.07
2019-05-18T07:21:00.163Z,29.33
2019-05-18T07:23:26.315Z,23.57
2019-05-18T07:25:52.347Z,29.30
2019-05-18T07:28:18.419Z,34.83
2019-05-18T07:30:44.456Z,29.13
2019-05-18T07:33:10.526Z,30.83
2019-05-18T07:35:36.557Z,26.20
2019-05-18T07:38:02.954Z,31.77
2019-05-18T07:40:28.977Z,27.53
2019-05-18T07:42:55.092Z,26.37
2019-05-18T07:45:23.694Z,26.17
2019-05-18T07:47:49.727Z,25.67
2019-05-18T07:50:15.750Z,28.83
2019-05-18T07:52:41.932Z,27.90
2019-05-18T07:55:08.443Z,26.00
2019-05-18T07:57:34.459Z,29.03
2019-05-18T08:00:00.603Z,23.97
2019-05-18T08:02:31.465Z,22.67
2019-05-18T08:04:57.495Z,24.33
2019-05-18T08:07:23.654Z,25.50
2019-05-18T08:09:49.690Z,22.17
2019-05-18T08:12:20.479Z,22.23
2019-05-18T08:14:52.638Z,23.57
2019-05-18T08:17:18.656Z,22.70
2019-05-18T08:19:44.673Z,19.43
2019-05-18T08:22:10.728Z,18.17
2019-05-18T08:24:36.734Z,15.53
2019-05-18T08:27:03.079Z,16.07
2019-05-18T08:29:29.142Z,16.30
2019-05-18T08:31:55.176Z,19.43
2019-05-18T08:34:21.243Z,20.97
2019-05-18T08:36:47.296Z,18.93
2019-05-18T08:39:18.286Z,19.23
2019-05-18T08:41:44.302Z,16.20
2019-05-18T08:44:10.350Z,19.00
2019-05-18T08:46:36.358Z,14.80
2019-05-18T08:49:02.458Z,17.47
2019-05-18T08:51:28.490Z,49.77
2019-05-18T08:53:54.519Z,16.67
2019-05-18T08:56:20.549Z,17.40
2019-05-18T08:58:46.588Z,18.80
2019-05-18T09:01:12.618Z,17.00
2019-05-18T09:03:38.631Z,18.77
2019-05-18T09:06:06.955Z,18.23
2019-05-18T09:08:32.971Z,18.70
2019-05-18T09:10:59.019Z,19.13
2019-05-18T09:13:25.091Z,18.37
2019-05-18T09:15:51.216Z,14.57
2019-05-18T09:18:17.304Z,14.23
2019-05-18T09:20:43.482Z,16.70
2019-05-18T09:23:09.587Z,15.93
2019-05-18T09:25:35.635Z,15.60
2019-05-18T09:28:01.673Z,17.07
2019-05-18T09:30:27.723Z,12.93
2019-05-18T09:32:53.847Z,15.17
2019-05-18T09:35:21.062Z,14.63
2019-05-18T09:37:47.115Z,17.23
2019-05-18T09:40:14.858Z,14.07
2019-05-18T09:42:41.027Z,12.90
2019-05-18T09:45:08.338Z,11.27
2019-05-18T09:47:34.349Z,16.30
2019-05-18T09:50:00.374Z,13.33
2019-05-18T09:52:43.644Z,14.77
2019-05-18T09:54:54.323Z,15.63
2019-05-18T09:57:20.359Z,13.87
2019-05-18T09:59:46.448Z,14.70
2019-05-18T10:02:12.741Z,14.30
2019-05-18T10:04:38.853Z,9.97
2019-05-18T10:07:07.571Z,14.97
2019-05-18T10:09:39.274Z,12.90
2019-05-18T10:12:01.854Z,13.77
2019-05-18T10:14:27.877Z,10.67
2019-05-18T10:16:54.690Z,9.67
2019-05-18T10:19:20.743Z,12.07
2019-05-18T10:21:46.761Z,13.37
2019-05-18T10:24:12.775Z,14.37
2019-05-18T10:26:38.884Z,13.80
2019-05-18T10:29:04.903Z,14.23
2019-05-18T10:31:30.936Z,12.20
2019-05-18T10:33:58.860Z,11.37
2019-05-18T10:36:26.957Z,9.93
2019-05-18T10:38:57.813Z,10.70
2019-05-18T10:41:24.588Z,11.80
2019-05-18T10:43:53.754Z,9.77
2019-05-18T10:46:19.843Z,11.17
2019-05-18T10:48:45.881Z,11.83
2019-05-18T10:51:11.961Z,10.00
2019-05-18T10:53:37.983Z,10.57
2019-05-18T10:56:04.897Z,9.43
2019-05-18T10:58:33.426Z,10.10
2019-05-18T11:00:59.713Z,7.80
2019-05-18T11:03:25.842Z,9.68
2019-05-18T11:05:51.869Z,8.33
2019-05-18T11:08:17.945Z,9.80
2019-05-18T11:10:44.248Z,6.92
2019-05-18T11:13:10.291Z,7.10
2019-05-18T11:15:36.339Z,7.72
2019-05-18T11:18:02.554Z,9.88
2019-05-18T11:20:28.585Z,6.37
2019-05-18T11:22:57.299Z,5.70
2019-05-18T11:25:23.406Z,5.50
2019-05-18T11:27:49.428Z,6.03
2019-05-18T11:30:17.356Z,7.83
2019-05-18T11:32:43.379Z,7.55
2019-05-18T11:35:09.460Z,7.25
2019-05-18T11:37:35.475Z,5.97
2019-05-18T11:40:03.744Z,4.78
2019-05-18T11:42:30.092Z,6.00
2019-05-18T11:44:56.110Z,6.60
2019-05-18T11:47:22.573Z,6.87
2019-05-18T11:49:48.711Z,8.45
2019-05-18T11:52:14.710Z,9.65
2019-05-18T11:54:40.746Z,9.25
2019-05-18T11:57:06.786Z,7.40
2019-05-18T11:59:32.912Z,7.20
2019-05-18T12:01:59.217Z,6.55
2019-05-18T12:04:27.904Z,7.67
2019-05-18T12:06:53.941Z,9.05
2019-05-18T12:09:20.029Z,7.22
2019-05-18T12:11:46.156Z,8.30
2019-05-18T12:14:13.313Z,9.65
2019-05-18T12:16:39.450Z,8.83
2019-05-18T12:19:07.187Z,6.62
2019-05-18T12:21:33.246Z,9.43
2019-05-18T12:24:14.119Z,6.22
2019-05-18T12:26:32.229Z,6.92
2019-05-18T12:28:58.269Z,5.90
2019-05-18T12:31:24.315Z,7.67
2019-05-18T12:33:50.319Z,7.20
2019-05-18T12:36:16.390Z,6.40
2019-05-18T12:38:42.799Z,6.28
2019-05-18T12:41:09.515Z,7.37
2019-05-18T12:43:36.002Z,5.87
2019-05-18T12:46:02.172Z,6.00
2019-05-18T12:48:28.190Z,7.53
2019-05-18T12:50:54.202Z,6.47
2019-05-18T12:53:20.251Z,6.67
2019-05-18T12:55:46.267Z,6.85
2019-05-18T12:58:12.286Z,9.23
2019-05-18T13:00:38.407Z,4.97
2019-05-18T13:03:04.431Z,4.37
2019-05-18T13:05:30.481Z,4.05
2019-05-18T13:07:56.794Z,6.87
2019-05-18T13:10:22.835Z,4.70
2019-05-18T13:12:48.847Z,6.75
2019-05-18T13:15:16.874Z,3.67
2019-05-18T13:17:42.891Z,8.85
2019-05-18T13:20:09.883Z,10.58
2019-05-18T13:22:36.949Z,4.50
2019-05-18T13:25:04.356Z,3.02
2019-05-18T13:27:39.518Z,16.93
2019-05-18T13:29:58.674Z,10.60
2019-05-18T13:32:24.705Z,3.30
2019-05-18T13:34:50.775Z,5.83
2019-05-18T13:37:17.022Z,11.10
2019-05-18T13:39:43.039Z,8.15
2019-05-18T13:42:09.058Z,4.35
2019-05-18T13:44:38.088Z,4.22
2019-05-18T13:47:04.088Z,9.20
2019-05-18T13:49:30.106Z,4.87
2019-05-18T13:51:56.226Z,3.52
2019-05-18T13:54:22.235Z,3.10
2019-05-18T13:56:48.260Z,5.53
2019-05-18T13:59:14.374Z,3.10
2019-05-18T14:01:40.391Z,2.87
2019-05-18T14:04:06.403Z,2.67
2019-05-18T14:06:32.552Z,3.83
2019-05-18T14:08:58.576Z,3.37
2019-05-18T14:11:24.880Z,4.37
2019-05-18T14:13:51.004Z,3.27
2019-05-18T14:16:17.019Z,3.27
2019-05-18T14:18:43.355Z,3.25
2019-05-18T14:21:09.553Z,5.28
2019-05-18T14:23:35.547Z,5.15
2019-05-18T14:26:01.563Z,3.30
2019-05-18T14:28:27.601Z,4.00
2019-05-18T14:30:53.611Z,17.55
2019-05-18T14:33:19.642Z,3.20
2019-05-18T14:35:45.750Z,3.92
2019-05-18T14:38:11.772Z,3.75
2019-05-18T14:40:37.851Z,4.10
2019-05-18T14:43:05.877Z,3.50
2019-05-18T14:45:33.487Z,2.98
2019-05-18T14:47:59.547Z,3.72
2019-05-18T14:50:25.979Z,2.60
2019-05-18T14:52:51.996Z,2.52
2019-05-18T14:55:32.406Z,2.80
2019-05-18T14:57:47.288Z,4.60
2019-05-18T15:00:13.411Z,8.85
2019-05-18T15:02:39.431Z,13.75
2019-05-18T15:05:09.024Z,7.85
2019-05-18T15:07:35.035Z,7.58
2019-05-18T15:10:01.052Z,10.32
2019-05-18T15:12:27.096Z,8.58
2019-05-18T15:14:53.124Z,8.05
2019-05-18T15:17:19.219Z,7.47
2019-05-18T15:19:45.313Z,10.80
2019-05-18T15:22:11.356Z,8.68
2019-05-18T15:24:37.390Z,11.33
2019-05-18T15:27:03.496Z,9.65
2019-05-18T15:29:29.557Z,12.50
2019-05-18T15:31:55.570Z,12.75
2019-05-18T15:34:21.657Z,15.48
2019-05-18T15:36:47.704Z,12.58
2019-05-18T15:39:13.724Z,12.20
2019-05-18T15:41:39.883Z,15.35
2019-05-18T15:44:05.907Z,28.85
2019-05-18T15:46:32.544Z,14.38
2019-05-18T15:48:58.588Z,12.00
2019-05-18T15:51:31.911Z,11.83
2019-05-18T15:53:58.019Z,14.25
2019-05-18T15:56:24.148Z,13.38
2019-05-18T15:58:50.163Z,11.63
2019-05-18T16:01:16.196Z,14.28
2019-05-18T16:03:42.259Z,12.33
2019-05-18T16:06:08.311Z,18.70
2019-05-18T16:08:34.368Z,12.68
2019-05-18T16:11:01.347Z,10.35
2019-05-18T16:13:29.290Z,10.50
2019-05-18T16:15:55.653Z,11.95
2019-05-18T16:18:21.670Z,12.23
2019-05-18T16:20:50.217Z,10.25
2019-05-18T16:23:16.231Z,13.55
2019-05-18T16:25:43.424Z,10.40
2019-05-18T16:28:09.451Z,14.40
2019-05-18T16:30:35.484Z,13.20
2019-05-18T16:33:01.651Z,11.50
2019-05-18T16:35:27.812Z,12.40
2019-05-18T16:37:53.949Z,16.77
2019-05-18T16:40:20.040Z,15.63
2019-05-18T16:42:46.743Z,13.95
2019-05-18T16:45:13.037Z,13.50
2019-05-18T16:47:45.414Z,15.33
2019-05-18T16:50:11.448Z,12.77
2019-05-18T16:52:37.489Z,19.27
2019-05-18T16:55:06.671Z,16.50
2019-05-18T16:57:32.698Z,20.93
2019-05-18T16:59:58.704Z,18.07
2019-05-18T17:02:31.633Z,16.83
2019-05-18T17:04:52.676Z,16.67
2019-05-18T17:07:18.689Z,15.63
2019-05-18T17:09:44.827Z,17.27
2019-05-18T17:12:10.847Z,16.67
2019-05-18T17:14:36.872Z,14.63
2019-05-18T17:17:03.241Z,17.77
2019-05-18T17:19:29.283Z,18.17
2019-05-18T17:21:55.584Z,18.07
2019-05-18T17:24:21.623Z,15.93
2019-05-18T17:26:52.832Z,17.60
2019-05-18T17:29:15.554Z,18.93
2019-05-18T17:31:41.669Z,15.93
2019-05-18T17:34:07.757Z,15.10
2019-05-18T17:36:33.861Z,17.67
2019-05-18T17:39:00.044Z,18.63
2019-05-18T17:41:26.057Z,21.33
2019-05-18T17:43:52.089Z,18.27
2019-05-18T17:46:18.570Z,18.80
2019-05-18T17:48:45.000Z,18.83
2019-05-18T17:51:11.022Z,20.03
2019-05-18T17:53:38.172Z,17.27
2019-05-18T17:56:04.196Z,78.63
2019-05-18T17:58:30.208Z,33.97
2019-05-18T18:00:56.251Z,18.30
2019-05-18T18:03:22.268Z,105.37
2019-05-18T18:05:48.294Z,21.33
2019-05-18T18:08:14.612Z,112.93
2019-05-18T18:10:40.836Z,41.43
2019-05-18T18:13:09.523Z,24.30
2019-05-18T18:15:35.159Z,22.50
2019-05-18T18:18:01.224Z,22.47
2019-05-18T18:20:27.249Z,23.07
2019-05-18T18:22:53.414Z,21.73
2019-05-18T18:25:19.419Z,28.10
2019-05-18T18:27:45.435Z,24.10
2019-05-18T18:30:11.463Z,25.27
2019-05-18T18:32:37.557Z,24.53
2019-05-18T18:35:04.299Z,22.13
2019-05-18T18:37:30.451Z,21.50
2019-05-18T18:39:56.491Z,31.67
2019-05-18T18:42:22.607Z,30.17
2019-05-18T18:44:48.660Z,22.70
2019-05-18T18:47:14.690Z,23.23
2019-05-18T18:49:40.996Z,26.20
2019-05-18T18:52:07.271Z,23.87
2019-05-18T18:54:33.304Z,28.17
2019-05-18T18:56:59.322Z,25.27
2019-05-18T18:59:25.474Z,25.70
2019-05-18T19:01:51.511Z,29.07
2019-05-18T19:04:17.639Z,32.17
2019-05-18T19:06:43.697Z,28.13
2019-05-18T19:09:09.867Z,24.87
2019-05-18T19:11:35.882Z,26.80
2019-05-18T19:14:03.840Z,27.50
2019-05-18T19:16:29.972Z,26.43
2019-05-18T19:18:56.075Z,27.07
2019-05-18T19:21:22.114Z,33.17
2019-05-18T19:23:48.146Z,30.73
2019-05-18T19:26:14.216Z,28.63
2019-05-18T19:28:40.578Z,29.20
2019-05-18T19:31:06.563Z,31.23
2019-05-18T19:33:32.582Z,28.33
2019-05-18T19:35:58.946Z,27.90
2019-05-18T19:38:25.019Z,28.57
2019-05-18T19:40:51.033Z,24.67
2019-05-18T19:43:17.381Z,26.80
2019-05-18T19:45:43.639Z,24.97
2019-05-18T19:48:09.659Z,29.30
2019-05-18T19:50:37.140Z,28.77
2019-05-18T19:53:03.159Z,33.97
2019-05-18T19:55:29.183Z,27.63
2019-05-18T19:58:08.091Z,29.80
2019-05-18T20:00:23.155Z,77.33
2019-05-18T20:02:49.170Z,30.13
2019-05-18T20:05:15.396Z,29.20
2019-05-18T20:07:41.402Z,34.87
2019-05-18T20:10:07.435Z,31.27
2019-05-18T20:12:33.519Z,28.63
2019-05-18T20:15:11.787Z,34.30
2019-05-18T20:17:43.471Z,34.50
2019-05-18T20:20:09.493Z,33.90
2019-05-18T20:22:35.511Z,33.00
2019-05-18T20:25:01.558Z,33.13
2019-05-18T20:27:27.586Z,35.10
2019-05-18T20:29:53.599Z,32.57
2019-05-18T20:32:19.667Z,34.60
2019-05-18T20:34:45.746Z,36.93
2019-05-18T20:37:11.815Z,37.93
2019-05-18T20:39:37.918Z,49.53
2019-05-18T20:42:03.976Z,41.13
2019-05-18T20:44:30.330Z,38.87
2019-05-18T20:46:56.499Z,36.00
2019-05-18T20:49:22.543Z,37.90
2019-05-18T20:51:51.024Z,32.83
2019-05-18T20:54:17.405Z,38.63
2019-05-18T20:56:43.411Z,41.37
2019-05-18T20:59:09.422Z,39.63
2019-05-18T21:01:35.766Z,39.77
2019-05-18T21:04:01.799Z,35.03
2019-05-18T21:06:27.896Z,32.90
2019-05-18T21:08:53.941Z,36.17
2019-05-18T21:11:19.939Z,39.53
2019-05-18T21:13:45.952Z,39.13
2019-05-18T21:16:12.279Z,35.87
2019-05-18T21:18:38.371Z,37.53
2019-05-18T21:21:07.275Z,44.03
2019-05-18T21:23:33.391Z,42.47
2019-05-18T21:25:59.428Z,42.20
2019-05-18T21:28:25.719Z,38.37
2019-05-18T21:30:51.791Z,44.97
2019-05-18T21:33:17.802Z,42.97
2019-05-18T21:35:43.827Z,39.20
2019-05-18T21:38:10.073Z,40.57
2019-05-18T21:40:36.142Z,40.47
2019-05-18T21:43:02.168Z,44.97
2019-05-18T21:45:28.578Z,41.77
2019-05-18T21:47:54.920Z,43.37
2019-05-18T21:50:23.854Z,42.33
2019-05-18T21:52:50.467Z,37.43
2019-05-18T21:55:18.714Z,44.67
2019-05-18T21:57:46.654Z,45.67
2019-05-18T22:00:12.767Z,41.37
2019-05-18T22:02:43.449Z,45.97
2019-05-18T22:05:12.126Z,45.23
2019-05-18T22:07:38.237Z,47.93
2019-05-18T22:10:05.243Z,47.93
2019-05-18T22:12:31.256Z,44.93
2019-05-18T22:14:57.398Z,41.03
2019-05-18T22:17:23.408Z,41.50
2019-05-18T22:19:49.431Z,45.67
2019-05-18T22:22:15.471Z,47.37
2019-05-18T22:24:41.491Z,50.10
2019-05-18T22:27:07.501Z,50.93
2019-05-18T22:29:33.648Z,43.90
2019-05-18T22:31:59.753Z,48.33
2019-05-18T22:34:33.781Z,49.80
2019-05-18T22:37:11.697Z,48.37
2019-05-18T22:39:37.096Z,52.50
2019-05-18T22:42:09.307Z,45.03
2019-05-18T22:44:35.432Z,46.07
2019-05-18T22:47:04.352Z,53.67
2019-05-18T22:49:30.401Z,49.80
2019-05-18T22:51:56.648Z,48.17
2019-05-18T22:54:23.211Z,47.33
2019-05-18T22:56:49.232Z,56.57
2019-05-18T22:59:15.280Z,47.27
2019-05-18T23:01:41.297Z,47.33
2019-05-18T23:04:07.631Z,46.53
2019-05-18T23:06:33.757Z,51.40
2019-05-18T23:09:00.071Z,53.70
2019-05-18T23:11:26.196Z,54.33
2019-05-18T23:13:53.267Z,57.77
2019-05-18T23:16:19.297Z,50.90
2019-05-18T23:18:56.502Z,52.87
2019-05-18T23:21:13.412Z,59.57
2019-05-18T23:23:39.421Z,60.73
2019-05-18T23:26:05.449Z,61.73
2019-05-18T23:28:31.493Z,61.13
2019-05-18T23:30:57.513Z,57.53
2019-05-18T23:33:23.510Z,58.17
2019-05-18T23:35:49.549Z,59.47
2019-05-18T23:38:15.811Z,65.27
2019-05-18T23:40:41.847Z,63.70
2019-05-18T23:43:07.867Z,60.67
2019-05-18T23:45:36.444Z,66.33
2019-05-18T23:48:02.482Z,55.53
2019-05-18T23:50:38.036Z,70.10
2019-05-18T23:53:04.200Z,64.37
2019-05-18T23:55:33.052Z,66.87
2019-05-18T23:58:04.887Z,64.03
